Dexter, Missouri
Current Conditions -  °F | °C
As of 11:53 PM on Wednesday 26 Nov 2014 (Local Time) from KPOF Reporting Station
Overcast Overcast  
Wind Chill: 31°   Ceiling: 2500
Heat Index: 39°   Visibility: 10mi
Dew Point: 31°   Wind: 13mph
Humidity: 73%   Direction: 310°NW
Pressure: 30.18"   Gusts: 26mph
Location:  36.8°N, 89.96°W
Report Text: KPOF 270553Z AUTO 31011G23KT 10SM OVC025 04/M01 A3018 RMK AO2 SLP224 T00391006 10039 20028 400501044 53023
Loading
Personal Weather Stations






























Interactive Weather Map New forecast layout! Learn more

10-Day Weather Forecast

Advertisements
Track Severe Weather on mobile